Marcelin, Canada
Current Conditions -  °F | °C
As of 4:00 PM on Monday 20 Oct 2014 (Local Time) from CYPA Reporting Station
Few Clouds Few Clouds  
Wind Chill: 68°   Ceiling: Unl
Heat Index: 68°   Visibility: 15mi
Dew Point: 45°   Wind: 10mph
Humidity: 43%   Direction: 170°S
Pressure: 29.64"   Gusts: NA
Location:  52.93°N, 106.78°W
Report Text: CYPA 202200Z 17009KT 15SM FEW250 20/07 A2964 RMK CI1 SLP046 DENSITY ALT 2500FT
Loading
Personal Weather Stations






























Interactive Weather Map
Tropical Storm Tracking
New forecast layout! Learn more

10-Day Weather Forecast

Advertisements
Track Severe Weather on mobile